sensor_id;sensor_type;location;lat;lon;timestamp;temperature;humidity
44305;DHT22;30019;50.576;8.568;2023-01-29T00:01:33;-1.30;99.90
44305;DHT22;30019;50.576;8.568;2023-01-29T00:03:58;-1.40;99.90
44305;DHT22;30019;50.576;8.568;2023-01-29T00:06:24;-1.30;99.90
44305;DHT22;30019;50.576;8.568;2023-01-29T00:08:49;-1.40;99.90
44305;DHT22;30019;50.576;8.568;2023-01-29T00:11:15;-1.40;99.90
44305;DHT22;30019;50.576;8.568;2023-01-29T00:13:42;-1.40;99.90
44305;DHT22;30019;50.576;8.568;2023-01-29T00:16:08;-1.40;99.90
44305;DHT22;30019;50.576;8.568;2023-01-29T00:18:37;-1.30;99.90
44305;DHT22;30019;50.576;8.568;2023-01-29T00:21:03;-1.40;99.90
44305;DHT22;30019;50.576;8.568;2023-01-29T00:23:32;-1.50;99.90
44305;DHT22;30019;50.576;8.568;2023-01-29T00:26:00;-1.50;99.90
44305;DHT22;30019;50.576;8.568;2023-01-29T00:28:26;-1.60;99.90
44305;DHT22;30019;50.576;8.568;2023-01-29T00:30:51;-1.70;99.90
44305;DHT22;30019;50.576;8.568;2023-01-29T00:33:17;-1.70;99.90
44305;DHT22;30019;50.576;8.568;2023-01-29T00:35:43;-1.80;99.90
44305;DHT22;30019;50.576;8.568;2023-01-29T00:38:08;-1.90;99.90
44305;DHT22;30019;50.576;8.568;2023-01-29T00:40:37;-1.90;99.90
44305;DHT22;30019;50.576;8.568;2023-01-29T00:43:21;-2.00;99.90
44305;DHT22;30019;50.576;8.568;2023-01-29T00:46:06;-2.00;99.90
44305;DHT22;30019;50.576;8.568;2023-01-29T00:48:33;-2.10;99.90
44305;DHT22;30019;50.576;8.568;2023-01-29T00:50:58;-2.20;99.90
44305;DHT22;30019;50.576;8.568;2023-01-29T00:53:24;-2.20;99.90
44305;DHT22;30019;50.576;8.568;2023-01-29T00:55:50;-2.30;99.90
44305;DHT22;30019;50.576;8.568;2023-01-29T00:58:15;-2.30;99.90
44305;DHT22;30019;50.576;8.568;2023-01-29T01:00:49;-2.30;99.90
44305;DHT22;30019;50.576;8.568;2023-01-29T01:03:15;-2.40;99.90
44305;DHT22;30019;50.576;8.568;2023-01-29T01:05:41;-2.40;99.90
44305;DHT22;30019;50.576;8.568;2023-01-29T01:08:08;-2.40;99.90
44305;DHT22;30019;50.576;8.568;2023-01-29T01:11:05;-2.50;99.90
44305;DHT22;30019;50.576;8.568;2023-01-29T01:13:32;-2.60;99.90
44305;DHT22;30019;50.576;8.568;2023-01-29T01:15:58;-2.70;99.90
44305;DHT22;30019;50.576;8.568;2023-01-29T01:18:23;-2.70;99.90
44305;DHT22;30019;50.576;8.568;2023-01-29T01:20:49;-2.80;99.90
44305;DHT22;30019;50.576;8.568;2023-01-29T01:23:17;-2.80;99.90
44305;DHT22;30019;50.576;8.568;2023-01-29T01:25:43;-2.90;99.90
44305;DHT22;30019;50.576;8.568;2023-01-29T01:28:09;-3.00;99.90
44305;DHT22;30019;50.576;8.568;2023-01-29T01:30:35;-3.00;99.90
44305;DHT22;30019;50.576;8.568;2023-01-29T01:33:00;-3.00;99.90
44305;DHT22;30019;50.576;8.568;2023-01-29T01:35:26;-3.00;99.90
44305;DHT22;30019;50.576;8.568;2023-01-29T01:37:52;-3.10;99.90
44305;DHT22;30019;50.576;8.568;2023-01-29T01:40:20;-3.10;99.90
44305;DHT22;30019;50.576;8.568;2023-01-29T01:42:50;-3.20;99.90
44305;DHT22;30019;50.576;8.568;2023-01-29T01:45:31;-3.20;99.90
44305;DHT22;30019;50.576;8.568;2023-01-29T01:48:02;-3.20;99.90
44305;DHT22;30019;50.576;8.568;2023-01-29T01:50:40;-3.20;99.90
44305;DHT22;30019;50.576;8.568;2023-01-29T01:53:13;-3.20;99.90
44305;DHT22;30019;50.576;8.568;2023-01-29T01:56:02;-3.20;99.90
44305;DHT22;30019;50.576;8.568;2023-01-29T01:58:32;-3.20;99.90
44305;DHT22;30019;50.576;8.568;2023-01-29T02:00:58;-3.20;99.90
44305;DHT22;30019;50.576;8.568;2023-01-29T02:03:26;-3.10;99.90
44305;DHT22;30019;50.576;8.568;2023-01-29T02:06:11;-3.10;99.90
44305;DHT22;30019;50.576;8.568;2023-01-29T02:08:59;-3.10;99.90
44305;DHT22;30019;50.576;8.568;2023-01-29T02:11:44;-3.20;99.90
44305;DHT22;30019;50.576;8.568;2023-01-29T02:14:10;-3.10;99.90
44305;DHT22;30019;50.576;8.568;2023-01-29T02:16:37;-3.20;99.90
44305;DHT22;30019;50.576;8.568;2023-01-29T02:19:27;-3.20;99.90
44305;DHT22;30019;50.576;8.568;2023-01-29T02:27:23;-3.40;99.90
44305;DHT22;30019;50.576;8.568;2023-01-29T02:30:04;-3.40;99.90
44305;DHT22;30019;50.576;8.568;2023-01-29T02:32:54;-3.50;99.90
44305;DHT22;30019;50.576;8.568;2023-01-29T02:35:36;-3.50;99.90
44305;DHT22;30019;50.576;8.568;2023-01-29T02:38:16;-3.60;99.90
44305;DHT22;30019;50.576;8.568;2023-01-29T02:40:51;-3.50;99.90
44305;DHT22;30019;50.576;8.568;2023-01-29T02:44:14;-3.60;99.90
44305;DHT22;30019;50.576;8.568;2023-01-29T02:55:15;-3.80;99.90
44305;DHT22;30019;50.576;8.568;2023-01-29T02:57:45;-3.90;99.90
44305;DHT22;30019;50.576;8.568;2023-01-29T03:00:21;-3.90;99.90
44305;DHT22;30019;50.576;8.568;2023-01-29T03:03:00;-4.00;99.90
44305;DHT22;30019;50.576;8.568;2023-01-29T03:05:32;-4.00;99.90
44305;DHT22;30019;50.576;8.568;2023-01-29T03:08:06;-4.00;99.90
44305;DHT22;30019;50.576;8.568;2023-01-29T03:10:42;-4.00;99.90
44305;DHT22;30019;50.576;8.568;2023-01-29T03:13:16;-4.00;99.90
44305;DHT22;30019;50.576;8.568;2023-01-29T03:15:45;-4.00;99.90
44305;DHT22;30019;50.576;8.568;2023-01-29T03:18:17;-4.00;99.90
44305;DHT22;30019;50.576;8.568;2023-01-29T03:20:49;-4.00;99.90
44305;DHT22;30019;50.576;8.568;2023-01-29T03:23:25;-4.00;99.90
44305;DHT22;30019;50.576;8.568;2023-01-29T03:26:13;-4.00;99.90
44305;DHT22;30019;50.576;8.568;2023-01-29T03:29:00;-4.00;99.90
44305;DHT22;30019;50.576;8.568;2023-01-29T03:31:46;-3.90;99.90
44305;DHT22;30019;50.576;8.568;2023-01-29T03:34:40;-3.80;99.90
44305;DHT22;30019;50.576;8.568;2023-01-29T03:40:01;-3.90;99.90
44305;DHT22;30019;50.576;8.568;2023-01-29T03:42:33;-4.00;99.90
44305;DHT22;30019;50.576;8.568;2023-01-29T03:50:58;-4.20;99.90
44305;DHT22;30019;50.576;8.568;2023-01-29T03:56:21;-4.20;99.90
44305;DHT22;30019;50.576;8.568;2023-01-29T03:59:17;-4.20;99.90
44305;DHT22;30019;50.576;8.568;2023-01-29T04:01:50;-4.20;99.90
44305;DHT22;30019;50.576;8.568;2023-01-29T04:04:30;-4.30;99.90
44305;DHT22;30019;50.576;8.568;2023-01-29T04:07:02;-4.30;99.90
44305;DHT22;30019;50.576;8.568;2023-01-29T04:09:39;-4.30;99.90
44305;DHT22;30019;50.576;8.568;2023-01-29T04:12:08;-4.40;99.90
44305;DHT22;30019;50.576;8.568;2023-01-29T04:14:35;-4.40;99.90
44305;DHT22;30019;50.576;8.568;2023-01-29T04:17:07;-4.30;99.90
44305;DHT22;30019;50.576;8.568;2023-01-29T04:19:34;-4.20;99.90
44305;DHT22;30019;50.576;8.568;2023-01-29T04:22:08;-4.20;99.90
44305;DHT22;30019;50.576;8.568;2023-01-29T04:24:38;-4.20;99.90
44305;DHT22;30019;50.576;8.568;2023-01-29T04:27:31;-4.20;99.90
44305;DHT22;30019;50.576;8.568;2023-01-29T04:30:17;-4.20;99.90
44305;DHT22;30019;50.576;8.568;2023-01-29T04:33:20;-4.20;99.90
44305;DHT22;30019;50.576;8.568;2023-01-29T04:36:03;-4.20;99.90
44305;DHT22;30019;50.576;8.568;2023-01-29T04:39:11;-4.20;99.90
44305;DHT22;30019;50.576;8.568;2023-01-29T04:42:20;-4.20;99.90
44305;DHT22;30019;50.576;8.568;2023-01-29T04:48:11;-4.10;99.90
44305;DHT22;30019;50.576;8.568;2023-01-29T04:51:08;-4.00;99.90
44305;DHT22;30019;50.576;8.568;2023-01-29T04:56:36;-4.00;99.90
44305;DHT22;30019;50.576;8.568;2023-01-29T04:59:07;-4.00;99.90
44305;DHT22;30019;50.576;8.568;2023-01-29T05:01:34;-4.10;99.90
44305;DHT22;30019;50.576;8.568;2023-01-29T05:04:05;-4.10;99.90
44305;DHT22;30019;50.576;8.568;2023-01-29T05:06:32;-4.10;99.90
44305;DHT22;30019;50.576;8.568;2023-01-29T05:08:59;-4.10;99.90
44305;DHT22;30019;50.576;8.568;2023-01-29T05:11:26;-4.10;99.90
44305;DHT22;30019;50.576;8.568;2023-01-29T05:13:52;-4.00;99.90
44305;DHT22;30019;50.576;8.568;2023-01-29T05:16:27;-4.00;99.90
44305;DHT22;30019;50.576;8.568;2023-01-29T05:18:53;-4.00;99.90
44305;DHT22;30019;50.576;8.568;2023-01-29T05:21:19;-4.00;99.90
44305;DHT22;30019;50.576;8.568;2023-01-29T05:24:25;-4.10;99.90
44305;DHT22;30019;50.576;8.568;2023-01-29T05:26:52;-4.10;99.90
44305;DHT22;30019;50.576;8.568;2023-01-29T05:29:39;-4.20;99.90
44305;DHT22;30019;50.576;8.568;2023-01-29T05:32:07;-4.20;99.90
44305;DHT22;30019;50.576;8.568;2023-01-29T05:34:32;-4.20;99.90
44305;DHT22;30019;50.576;8.568;2023-01-29T05:36:58;-4.30;99.90
44305;DHT22;30019;50.576;8.568;2023-01-29T05:39:24;-4.30;99.90
44305;DHT22;30019;50.576;8.568;2023-01-29T05:41:49;-4.30;99.90
44305;DHT22;30019;50.576;8.568;2023-01-29T05:44:15;-4.40;99.90
44305;DHT22;30019;50.576;8.568;2023-01-29T05:46:41;-4.40;99.90
44305;DHT22;30019;50.576;8.568;2023-01-29T05:49:06;-4.40;99.90
44305;DHT22;30019;50.576;8.568;2023-01-29T05:51:32;-4.40;99.90
44305;DHT22;30019;50.576;8.568;2023-01-29T05:53:57;-4.40;99.90
44305;DHT22;30019;50.576;8.568;2023-01-29T05:56:23;-4.40;99.90
44305;DHT22;30019;50.576;8.568;2023-01-29T05:58:49;-4.40;99.90
44305;DHT22;30019;50.576;8.568;2023-01-29T06:01:20;-4.50;99.90
44305;DHT22;30019;50.576;8.568;2023-01-29T06:03:46;-4.50;99.90
44305;DHT22;30019;50.576;8.568;2023-01-29T06:06:12;-4.50;99.90
44305;DHT22;30019;50.576;8.568;2023-01-29T06:08:38;-4.50;99.90
44305;DHT22;30019;50.576;8.568;2023-01-29T06:11:07;-4.50;99.90
44305;DHT22;30019;50.576;8.568;2023-01-29T06:13:33;-4.50;99.90
44305;DHT22;30019;50.576;8.568;2023-01-29T06:15:58;-4.50;99.90
44305;DHT22;30019;50.576;8.568;2023-01-29T06:18:24;-4.50;99.90
44305;DHT22;30019;50.576;8.568;2023-01-29T06:20:50;-4.50;99.90
44305;DHT22;30019;50.576;8.568;2023-01-29T06:23:15;-4.50;99.90
44305;DHT22;30019;50.576;8.568;2023-01-29T06:25:41;-4.60;99.90
44305;DHT22;30019;50.576;8.568;2023-01-29T06:28:07;-4.50;99.90
44305;DHT22;30019;50.576;8.568;2023-01-29T06:30:32;-4.50;99.90
44305;DHT22;30019;50.576;8.568;2023-01-29T06:32:58;-4.50;99.90
44305;DHT22;30019;50.576;8.568;2023-01-29T06:35:26;-4.50;99.90
44305;DHT22;30019;50.576;8.568;2023-01-29T06:37:51;-4.60;99.90
44305;DHT22;30019;50.576;8.568;2023-01-29T06:40:17;-4.60;99.90
44305;DHT22;30019;50.576;8.568;2023-01-29T06:42:43;-4.50;99.90
44305;DHT22;30019;50.576;8.568;2023-01-29T06:45:09;-4.50;99.90
44305;DHT22;30019;50.576;8.568;2023-01-29T06:47:34;-4.50;99.90
44305;DHT22;30019;50.576;8.568;2023-01-29T06:50:00;-4.60;99.90
44305;DHT22;30019;50.576;8.568;2023-01-29T06:52:26;-4.60;99.90
44305;DHT22;30019;50.576;8.568;2023-01-29T06:54:53;-4.60;99.90
44305;DHT22;30019;50.576;8.568;2023-01-29T06:57:19;-4.70;99.90
44305;DHT22;30019;50.576;8.568;2023-01-29T06:59:45;-4.60;99.90
44305;DHT22;30019;50.576;8.568;2023-01-29T07:02:11;-4.70;99.90
44305;DHT22;30019;50.576;8.568;2023-01-29T07:04:36;-4.60;99.90
44305;DHT22;30019;50.576;8.568;2023-01-29T07:07:02;-4.60;99.90
44305;DHT22;30019;50.576;8.568;2023-01-29T07:09:28;-4.60;99.90
44305;DHT22;30019;50.576;8.568;2023-01-29T07:11:53;-4.70;99.90
44305;DHT22;30019;50.576;8.568;2023-01-29T07:14:19;-4.70;99.90
44305;DHT22;30019;50.576;8.568;2023-01-29T07:16:44;-4.70;99.90
44305;DHT22;30019;50.576;8.568;2023-01-29T07:19:10;-4.70;99.90
44305;DHT22;30019;50.576;8.568;2023-01-29T07:21:36;-4.80;99.90
44305;DHT22;30019;50.576;8.568;2023-01-29T07:24:01;-4.80;99.90
44305;DHT22;30019;50.576;8.568;2023-01-29T07:26:27;-4.80;99.90
44305;DHT22;30019;50.576;8.568;2023-01-29T07:28:53;-4.80;99.90
44305;DHT22;30019;50.576;8.568;2023-01-29T07:31:19;-4.80;99.90
44305;DHT22;30019;50.576;8.568;2023-01-29T07:33:45;-4.80;99.90
44305;DHT22;30019;50.576;8.568;2023-01-29T07:36:12;-4.80;99.90
44305;DHT22;30019;50.576;8.568;2023-01-29T07:38:37;-4.70;99.90
44305;DHT22;30019;50.576;8.568;2023-01-29T07:41:03;-4.70;99.90
44305;DHT22;30019;50.576;8.568;2023-01-29T07:43:29;-4.70;99.90
44305;DHT22;30019;50.576;8.568;2023-01-29T07:45:55;-4.70;99.90
44305;DHT22;30019;50.576;8.568;2023-01-29T07:48:20;-4.70;99.90
44305;DHT22;30019;50.576;8.568;2023-01-29T07:50:53;-4.70;99.90
44305;DHT22;30019;50.576;8.568;2023-01-29T07:53:19;-4.60;99.90
44305;DHT22;30019;50.576;8.568;2023-01-29T07:55:45;-4.60;99.90
44305;DHT22;30019;50.576;8.568;2023-01-29T07:58:10;-4.50;99.90
44305;DHT22;30019;50.576;8.568;2023-01-29T08:00:36;-4.50;99.90
44305;DHT22;30019;50.576;8.568;2023-01-29T08:03:06;-4.50;99.90
44305;DHT22;30019;50.576;8.568;2023-01-29T08:05:32;-4.40;99.90
44305;DHT22;30019;50.576;8.568;2023-01-29T08:07:58;-4.40;99.90
44305;DHT22;30019;50.576;8.568;2023-01-29T08:10:24;-4.30;99.90
44305;DHT22;30019;50.576;8.568;2023-01-29T08:12:57;-4.20;99.90
44305;DHT22;30019;50.576;8.568;2023-01-29T08:15:23;-4.10;99.90
44305;DHT22;30019;50.576;8.568;2023-01-29T08:17:49;-4.00;99.90
44305;DHT22;30019;50.576;8.568;2023-01-29T08:20:15;-4.00;99.90
44305;DHT22;30019;50.576;8.568;2023-01-29T08:22:41;-3.80;99.90
44305;DHT22;30019;50.576;8.568;2023-01-29T08:25:07;-3.80;99.90
44305;DHT22;30019;50.576;8.568;2023-01-29T08:27:33;-3.70;99.90
44305;DHT22;30019;50.576;8.568;2023-01-29T08:29:58;-3.60;99.90
44305;DHT22;30019;50.576;8.568;2023-01-29T08:32:24;-3.50;99.90
44305;DHT22;30019;50.576;8.568;2023-01-29T08:34:49;-3.50;99.90
44305;DHT22;30019;50.576;8.568;2023-01-29T08:37:15;-3.50;99.90
44305;DHT22;30019;50.576;8.568;2023-01-29T08:39:40;-3.40;99.90
44305;DHT22;30019;50.576;8.568;2023-01-29T08:42:06;-3.30;99.90
44305;DHT22;30019;50.576;8.568;2023-01-29T08:44:32;-3.30;99.90
44305;DHT22;30019;50.576;8.568;2023-01-29T08:46:57;-3.20;99.90
44305;DHT22;30019;50.576;8.568;2023-01-29T08:49:23;-3.20;99.90
44305;DHT22;30019;50.576;8.568;2023-01-29T08:51:49;-3.20;99.90
44305;DHT22;30019;50.576;8.568;2023-01-29T08:54:16;-3.20;99.90
44305;DHT22;30019;50.576;8.568;2023-01-29T08:56:42;-3.20;99.90
44305;DHT22;30019;50.576;8.568;2023-01-29T08:59:09;-3.20;99.90
44305;DHT22;30019;50.576;8.568;2023-01-29T09:01:34;-3.20;99.90
44305;DHT22;30019;50.576;8.568;2023-01-29T09:04:00;-3.20;99.90
44305;DHT22;30019;50.576;8.568;2023-01-29T09:06:26;-3.10;99.90
44305;DHT22;30019;50.576;8.568;2023-01-29T09:08:51;-3.10;99.90
44305;DHT22;30019;50.576;8.568;2023-01-29T09:11:17;-3.10;99.90
44305;DHT22;30019;50.576;8.568;2023-01-29T09:13:43;-3.10;99.90
44305;DHT22;30019;50.576;8.568;2023-01-29T09:16:08;-3.10;99.90
44305;DHT22;30019;50.576;8.568;2023-01-29T09:18:34;-3.10;99.90
44305;DHT22;30019;50.576;8.568;2023-01-29T09:21:00;-3.00;99.90
44305;DHT22;30019;50.576;8.568;2023-01-29T09:23:28;-2.90;99.90
44305;DHT22;30019;50.576;8.568;2023-01-29T09:25:54;-2.90;99.90
44305;DHT22;30019;50.576;8.568;2023-01-29T09:28:20;-2.90;99.90
44305;DHT22;30019;50.576;8.568;2023-01-29T09:30:45;-2.80;99.90
44305;DHT22;30019;50.576;8.568;2023-01-29T09:33:11;-2.80;99.90
44305;DHT22;30019;50.576;8.568;2023-01-29T09:35:40;-2.70;99.90
44305;DHT22;30019;50.576;8.568;2023-01-29T09:38:06;-2.70;99.90
44305;DHT22;30019;50.576;8.568;2023-01-29T09:43:32;-2.50;99.90
44305;DHT22;30019;50.576;8.568;2023-01-29T09:46:03;-2.50;99.90
44305;DHT22;30019;50.576;8.568;2023-01-29T09:48:32;-2.40;99.90
44305;DHT22;30019;50.576;8.568;2023-01-29T09:51:00;-2.30;99.90
44305;DHT22;30019;50.576;8.568;2023-01-29T09:53:45;-2.30;99.90
44305;DHT22;30019;50.576;8.568;2023-01-29T09:56:18;-2.20;99.90
44305;DHT22;30019;50.576;8.568;2023-01-29T09:58:44;-2.20;99.90
44305;DHT22;30019;50.576;8.568;2023-01-29T10:03:58;-2.00;99.90
44305;DHT22;30019;50.576;8.568;2023-01-29T10:17:48;-1.10;99.90
44305;DHT22;30019;50.576;8.568;2023-01-29T10:20:42;-0.90;99.90
44305;DHT22;30019;50.576;8.568;2023-01-29T10:25:39;-0.60;99.90
44305;DHT22;30019;50.576;8.568;2023-01-29T10:28:32;-0.40;99.90
44305;DHT22;30019;50.576;8.568;2023-01-29T10:31:27;-0.50;99.90
44305;DHT22;30019;50.576;8.568;2023-01-29T10:34:37;-0.50;99.90
44305;DHT22;30019;50.576;8.568;2023-01-29T10:37:18;-0.50;99.90
44305;DHT22;30019;50.576;8.568;2023-01-29T10:39:46;-0.50;99.90
44305;DHT22;30019;50.576;8.568;2023-01-29T10:42:45;-0.50;99.90
44305;DHT22;30019;50.576;8.568;2023-01-29T10:51:01;-0.20;99.90
44305;DHT22;30019;50.576;8.568;2023-01-29T10:54:47;-0.20;99.90
44305;DHT22;30019;50.576;8.568;2023-01-29T11:00:08;-0.40;99.90
44305;DHT22;30019;50.576;8.568;2023-01-29T11:02:45;-0.40;99.90
44305;DHT22;30019;50.576;8.568;2023-01-29T11:05:35;-0.40;99.90
44305;DHT22;30019;50.576;8.568;2023-01-29T11:08:10;-0.40;99.90
44305;DHT22;30019;50.576;8.568;2023-01-29T11:10:41;-0.30;99.90
44305;DHT22;30019;50.576;8.568;2023-01-29T11:13:13;-0.30;99.90
44305;DHT22;30019;50.576;8.568;2023-01-29T11:15:38;-0.40;99.90
44305;DHT22;30019;50.576;8.568;2023-01-29T11:18:12;-0.30;99.90
44305;DHT22;30019;50.576;8.568;2023-01-29T11:20:39;-0.30;99.90
44305;DHT22;30019;50.576;8.568;2023-01-29T11:23:17;-0.20;99.90
44305;DHT22;30019;50.576;8.568;2023-01-29T11:25:51;-0.20;99.90
44305;DHT22;30019;50.576;8.568;2023-01-29T11:28:44;-0.10;99.90
44305;DHT22;30019;50.576;8.568;2023-01-29T11:31:18;0.00;99.90
44305;DHT22;30019;50.576;8.568;2023-01-29T11:33:46;0.10;99.90
44305;DHT22;30019;50.576;8.568;2023-01-29T11:36:20;0.10;99.90
44305;DHT22;30019;50.576;8.568;2023-01-29T11:38:46;0.10;99.90
44305;DHT22;30019;50.576;8.568;2023-01-29T11:41:15;0.10;99.90
44305;DHT22;30019;50.576;8.568;2023-01-29T11:43:46;0.10;99.90
44305;DHT22;30019;50.576;8.568;2023-01-29T11:46:13;0.10;99.90
44305;DHT22;30019;50.576;8.568;2023-01-29T11:48:42;0.10;99.90
44305;DHT22;30019;50.576;8.568;2023-01-29T11:51:20;0.20;99.90
44305;DHT22;30019;50.576;8.568;2023-01-29T11:53:59;0.20;99.90
44305;DHT22;30019;50.576;8.568;2023-01-29T11:56:33;0.20;99.90
44305;DHT22;30019;50.576;8.568;2023-01-29T11:59:00;0.20;99.90
44305;DHT22;30019;50.576;8.568;2023-01-29T12:01:35;0.30;99.90
44305;DHT22;30019;50.576;8.568;2023-01-29T12:04:02;0.30;99.90
44305;DHT22;30019;50.576;8.568;2023-01-29T12:06:33;0.40;99.90
44305;DHT22;30019;50.576;8.568;2023-01-29T12:09:01;0.60;99.90
44305;DHT22;30019;50.576;8.568;2023-01-29T12:11:33;1.00;99.90
44305;DHT22;30019;50.576;8.568;2023-01-29T12:14:03;0.80;99.90
44305;DHT22;30019;50.576;8.568;2023-01-29T12:16:37;0.90;99.90
44305;DHT22;30019;50.576;8.568;2023-01-29T12:19:24;0.90;99.90
44305;DHT22;30019;50.576;8.568;2023-01-29T12:21:57;1.40;99.90
44305;DHT22;30019;50.576;8.568;2023-01-29T12:24:33;1.50;99.90
44305;DHT22;30019;50.576;8.568;2023-01-29T12:30:02;1.00;99.90
44305;DHT22;30019;50.576;8.568;2023-01-29T12:32:33;0.80;99.90
44305;DHT22;30019;50.576;8.568;2023-01-29T12:35:09;0.80;99.90
44305;DHT22;30019;50.576;8.568;2023-01-29T12:40:15;0.70;99.90
44305;DHT22;30019;50.576;8.568;2023-01-29T12:42:43;0.60;99.90
44305;DHT22;30019;50.576;8.568;2023-01-29T12:45:20;0.50;99.90
44305;DHT22;30019;50.576;8.568;2023-01-29T12:47:55;0.60;99.90
44305;DHT22;30019;50.576;8.568;2023-01-29T12:50:32;0.60;99.90
44305;DHT22;30019;50.576;8.568;2023-01-29T12:55:52;0.60;99.90
44305;DHT22;30019;50.576;8.568;2023-01-29T12:58:30;0.60;99.90
44305;DHT22;30019;50.576;8.568;2023-01-29T13:01:02;0.70;99.90
44305;DHT22;30019;50.576;8.568;2023-01-29T13:06:05;0.80;99.90
44305;DHT22;30019;50.576;8.568;2023-01-29T13:08:49;0.80;99.90
44305;DHT22;30019;50.576;8.568;2023-01-29T13:11:39;0.70;99.90
44305;DHT22;30019;50.576;8.568;2023-01-29T13:17:22;0.80;99.90
44305;DHT22;30019;50.576;8.568;2023-01-29T13:19:51;0.70;99.90
44305;DHT22;30019;50.576;8.568;2023-01-29T13:22:28;0.50;99.90
44305;DHT22;30019;50.576;8.568;2023-01-29T13:24:56;0.50;99.90
44305;DHT22;30019;50.576;8.568;2023-01-29T13:27:28;0.40;99.90
44305;DHT22;30019;50.576;8.568;2023-01-29T13:29:55;0.30;99.90
44305;DHT22;30019;50.576;8.568;2023-01-29T13:32:29;0.40;99.90
44305;DHT22;30019;50.576;8.568;2023-01-29T13:35:05;0.30;99.90
44305;DHT22;30019;50.576;8.568;2023-01-29T13:37:48;0.30;99.90
44305;DHT22;30019;50.576;8.568;2023-01-29T13:40:26;0.30;99.90
44305;DHT22;30019;50.576;8.568;2023-01-29T13:42:53;0.40;99.90
44305;DHT22;30019;50.576;8.568;2023-01-29T13:47:52;0.80;99.90
44305;DHT22;30019;50.576;8.568;2023-01-29T13:50:32;1.00;99.90
44305;DHT22;30019;50.576;8.568;2023-01-29T13:53:02;1.10;99.90
44305;DHT22;30019;50.576;8.568;2023-01-29T13:55:34;1.00;99.90
44305;DHT22;30019;50.576;8.568;2023-01-29T13:58:02;0.70;99.90
44305;DHT22;30019;50.576;8.568;2023-01-29T14:05:40;0.50;99.90
44305;DHT22;30019;50.576;8.568;2023-01-29T14:10:39;0.40;99.90
44305;DHT22;30019;50.576;8.568;2023-01-29T14:18:25;0.40;99.90
44305;DHT22;30019;50.576;8.568;2023-01-29T14:21:03;0.40;99.90
44305;DHT22;30019;50.576;8.568;2023-01-29T14:23:49;0.40;99.90
44305;DHT22;30019;50.576;8.568;2023-01-29T14:26:30;0.40;99.90
44305;DHT22;30019;50.576;8.568;2023-01-29T14:31:52;0.30;99.90
44305;DHT22;30019;50.576;8.568;2023-01-29T14:36:48;0.10;99.90
44305;DHT22;30019;50.576;8.568;2023-01-29T14:40:11;0.10;99.90
44305;DHT22;30019;50.576;8.568;2023-01-29T14:45:00;0.00;99.90
44305;DHT22;30019;50.576;8.568;2023-01-29T14:50:36;0.00;99.90
44305;DHT22;30019;50.576;8.568;2023-01-29T14:56:23;0.00;99.90
44305;DHT22;30019;50.576;8.568;2023-01-29T15:01:37;-0.10;99.90
44305;DHT22;30019;50.576;8.568;2023-01-29T15:06:44;-0.10;99.90
44305;DHT22;30019;50.576;8.568;2023-01-29T15:09:18;-0.20;99.90
44305;DHT22;30019;50.576;8.568;2023-01-29T15:12:02;-0.20;99.90
44305;DHT22;30019;50.576;8.568;2023-01-29T15:14:35;-0.20;99.90
44305;DHT22;30019;50.576;8.568;2023-01-29T15:19:41;-0.30;99.90
44305;DHT22;30019;50.576;8.568;2023-01-29T15:22:21;-0.40;99.90
44305;DHT22;30019;50.576;8.568;2023-01-29T15:27:32;-0.40;99.90
44305;DHT22;30019;50.576;8.568;2023-01-29T15:30:03;-0.50;99.90
44305;DHT22;30019;50.576;8.568;2023-01-29T15:32:31;-0.50;99.90
44305;DHT22;30019;50.576;8.568;2023-01-29T15:34:58;-0.50;99.90
44305;DHT22;30019;50.576;8.568;2023-01-29T15:37:42;-0.50;99.90
44305;DHT22;30019;50.576;8.568;2023-01-29T15:40:15;-0.50;99.90
44305;DHT22;30019;50.576;8.568;2023-01-29T15:42:43;-0.60;99.90
44305;DHT22;30019;50.576;8.568;2023-01-29T15:47:57;-0.60;99.90
44305;DHT22;30019;50.576;8.568;2023-01-29T15:50:23;-0.70;99.90
44305;DHT22;30019;50.576;8.568;2023-01-29T15:52:51;-0.70;99.90
44305;DHT22;30019;50.576;8.568;2023-01-29T15:55:19;-0.70;99.90
44305;DHT22;30019;50.576;8.568;2023-01-29T15:57:48;-0.80;99.90
44305;DHT22;30019;50.576;8.568;2023-01-29T16:00:25;-0.80;99.90
44305;DHT22;30019;50.576;8.568;2023-01-29T16:02:52;-0.80;99.90
44305;DHT22;30019;50.576;8.568;2023-01-29T16:05:22;-0.80;99.90
44305;DHT22;30019;50.576;8.568;2023-01-29T16:07:50;-0.90;99.90
44305;DHT22;30019;50.576;8.568;2023-01-29T16:10:28;-1.00;99.90
44305;DHT22;30019;50.576;8.568;2023-01-29T16:12:54;-1.00;99.90
44305;DHT22;30019;50.576;8.568;2023-01-29T16:17:56;-1.10;99.90
44305;DHT22;30019;50.576;8.568;2023-01-29T16:20:39;-1.10;99.90
44305;DHT22;30019;50.576;8.568;2023-01-29T16:23:16;-1.20;99.90
44305;DHT22;30019;50.576;8.568;2023-01-29T16:25:42;-1.30;99.90
44305;DHT22;30019;50.576;8.568;2023-01-29T16:28:08;-1.30;99.90
44305;DHT22;30019;50.576;8.568;2023-01-29T16:30:36;-1.40;99.90
44305;DHT22;30019;50.576;8.568;2023-01-29T16:33:06;-1.50;99.90
44305;DHT22;30019;50.576;8.568;2023-01-29T16:35:35;-1.60;99.90
44305;DHT22;30019;50.576;8.568;2023-01-29T16:38:04;-1.70;99.90
44305;DHT22;30019;50.576;8.568;2023-01-29T16:40:34;-1.80;99.90
44305;DHT22;30019;50.576;8.568;2023-01-29T16:45:42;-1.90;99.90
44305;DHT22;30019;50.576;8.568;2023-01-29T16:48:29;-2.00;99.90
44305;DHT22;30019;50.576;8.568;2023-01-29T16:51:38;-1.90;99.90
44305;DHT22;30019;50.576;8.568;2023-01-29T16:54:13;-1.90;99.90
44305;DHT22;30019;50.576;8.568;2023-01-29T16:56:47;-2.00;99.90
44305;DHT22;30019;50.576;8.568;2023-01-29T16:59:22;-2.00;99.90
44305;DHT22;30019;50.576;8.568;2023-01-29T17:01:54;-2.00;99.90
44305;DHT22;30019;50.576;8.568;2023-01-29T17:04:20;-2.00;99.90
44305;DHT22;30019;50.576;8.568;2023-01-29T17:06:54;-2.00;99.90
44305;DHT22;30019;50.576;8.568;2023-01-29T17:09:23;-2.00;99.90
44305;DHT22;30019;50.576;8.568;2023-01-29T17:11:55;-2.00;99.90
44305;DHT22;30019;50.576;8.568;2023-01-29T17:14:22;-1.90;99.90
44305;DHT22;30019;50.576;8.568;2023-01-29T17:16:54;-1.90;99.90
44305;DHT22;30019;50.576;8.568;2023-01-29T17:19:20;-1.90;99.90
44305;DHT22;30019;50.576;8.568;2023-01-29T17:21:46;-2.00;99.90
44305;DHT22;30019;50.576;8.568;2023-01-29T17:24:11;-1.90;99.90
44305;DHT22;30019;50.576;8.568;2023-01-29T17:26:37;-1.80;99.90
44305;DHT22;30019;50.576;8.568;2023-01-29T17:29:03;-1.70;99.90
44305;DHT22;30019;50.576;8.568;2023-01-29T17:31:29;-1.70;99.90
44305;DHT22;30019;50.576;8.568;2023-01-29T17:33:54;-1.60;99.90
44305;DHT22;30019;50.576;8.568;2023-01-29T17:36:20;-1.60;99.90
44305;DHT22;30019;50.576;8.568;2023-01-29T17:38:46;-1.60;99.90
44305;DHT22;30019;50.576;8.568;2023-01-29T17:41:24;-1.60;99.90
44305;DHT22;30019;50.576;8.568;2023-01-29T17:43:51;-1.60;99.90
44305;DHT22;30019;50.576;8.568;2023-01-29T17:46:17;-1.60;99.90
44305;DHT22;30019;50.576;8.568;2023-01-29T17:48:44;-1.60;99.90
44305;DHT22;30019;50.576;8.568;2023-01-29T17:51:14;-1.60;99.90
44305;DHT22;30019;50.576;8.568;2023-01-29T17:53:41;-1.60;99.90
44305;DHT22;30019;50.576;8.568;2023-01-29T17:56:16;-1.60;99.90
44305;DHT22;30019;50.576;8.568;2023-01-29T17:58:42;-1.50;99.90
44305;DHT22;30019;50.576;8.568;2023-01-29T18:01:07;-1.60;99.90
44305;DHT22;30019;50.576;8.568;2023-01-29T18:03:33;-1.60;99.90